Time;durP1;ratioP1;P1;durP2;ratioP2;P2;SDS_P1;SDS_P2;PMS_P1;PMS_P2;Temp;Humidity;BMP_temperature;BMP_pressure;BME280_temperature;BME280_humidity;BME280_pressure;Samples;Min_cycle;Max_cycle;Signal;HPM_P1;HPM_P2
2022/01/13 00:00:14;;;;;;;583.67;55.67;;;4.20;99.90;;;;;;5037294;28;20052;-74
2022/01/13 00:02:39;;;;;;;487.38;52.72;;;4.20;99.90;;;;;;5022840;28;20418;-74
2022/01/13 00:05:05;;;;;;;583.75;53.78;;;4.30;99.90;;;;;;5017626;28;20048;-76
2022/01/13 00:07:31;;;;;;;527.22;52.55;;;4.20;99.90;;;;;;5018416;28;20124;-74
2022/01/13 00:09:57;;;;;;;549.55;50.95;;;4.30;99.90;;;;;;5018637;28;20121;-75
2022/01/13 00:12:27;;;;;;;669.65;56.90;;;4.30;99.90;;;;;;5018182;28;20100;-74
2022/01/13 00:15:20;;;;;;;590.28;54.05;;;4.20;99.90;;;;;;5017982;28;20128;-74
2022/01/13 00:20:33;;;;;;;593.90;51.78;;;4.30;99.90;;;;;;5036810;28;20499;-74
2022/01/13 00:25:52;;;;;;;562.67;49.47;;;4.30;99.90;;;;;;5001092;28;20052;-74
2022/01/13 00:28:20;;;;;;;574.80;53.30;;;4.30;99.90;;;;;;5020787;28;20067;-74
2022/01/13 00:30:50;;;;;;;553.78;49.75;;;4.30;99.90;;;;;;5020767;28;20060;-74
2022/01/13 00:33:22;;;;;;;583.70;50.08;;;4.30;99.90;;;;;;5037542;28;20040;-76
2022/01/13 00:35:48;;;;;;;643.88;54.17;;;4.30;99.90;;;;;;5020766;28;20565;-74
2022/01/13 00:38:14;;;;;;;574.22;49.42;;;4.30;99.90;;;;;;5020462;28;20073;-74
2022/01/13 00:40:39;;;;;;;631.53;51.38;;;4.30;99.90;;;;;;5037239;28;20076;-74
2022/01/13 00:43:05;;;;;;;394.55;44.35;;;4.40;99.90;;;;;;5021417;28;20048;-76
2022/01/13 00:45:31;;;;;;;530.75;46.20;;;4.30;99.90;;;;;;5037707;28;20044;-74
2022/01/13 00:47:56;;;;;;;608.45;49.67;;;4.40;99.90;;;;;;5020198;28;20165;-74
2022/01/13 00:50:22;;;;;;;544.63;45.97;;;4.40;99.90;;;;;;5033575;28;20037;-74
2022/01/13 00:52:48;;;;;;;584.15;48.40;;;4.40;99.90;;;;;;5017075;28;20063;-75
2022/01/13 00:55:20;;;;;;;617.97;48.80;;;4.40;99.90;;;;;;5016831;28;20045;-74
2022/01/13 00:57:46;;;;;;;561.67;47.53;;;4.40;99.90;;;;;;5017139;28;20041;-74
2022/01/13 01:00:12;;;;;;;634.58;49.95;;;4.40;99.90;;;;;;5017330;28;20048;-75
2022/01/13 01:02:38;;;;;;;560.35;45.55;;;4.40;99.90;;;;;;5016409;28;20094;-74
2022/01/13 01:05:04;;;;;;;655.53;49.88;;;4.40;99.90;;;;;;5039924;28;20041;-75
2022/01/13 01:07:30;;;;;;;623.80;48.00;;;4.40;99.90;;;;;;5056477;28;20040;-74
2022/01/13 01:09:58;;;;;;;655.58;49.13;;;4.40;99.90;;;;;;5056297;28;20043;-74
2022/01/13 01:12:24;;;;;;;529.72;45.35;;;4.40;99.90;;;;;;5056797;28;20044;-74
2022/01/13 01:14:55;;;;;;;563.92;44.75;;;4.40;99.90;;;;;;5056967;28;20044;-76
2022/01/13 01:17:21;;;;;;;577.47;45.42;;;4.50;99.90;;;;;;5039253;28;20068;-74
2022/01/13 01:19:50;;;;;;;593.50;45.70;;;4.40;99.90;;;;;;5056391;28;20071;-75
2022/01/13 01:27:23;;;;;;;574.80;45.80;;;4.50;99.90;;;;;;5056448;28;20043;-74
2022/01/13 01:30:00;;;;;;;495.55;43.08;;;4.50;99.90;;;;;;5056330;28;20052;-74
2022/01/13 01:32:27;;;;;;;562.30;44.97;;;4.50;99.90;;;;;;5039220;28;20148;-75
2022/01/13 01:34:57;;;;;;;464.92;39.83;;;4.50;99.90;;;;;;5039336;28;20040;-73
2022/01/13 01:37:27;;;;;;;490.30;41.20;;;4.60;99.90;;;;;;5056611;28;20114;-75
2022/01/13 01:39:53;;;;;;;558.53;44.08;;;4.60;99.90;;;;;;5056466;28;20139;-74
2022/01/13 01:42:20;;;;;;;508.10;40.88;;;4.60;99.90;;;;;;5056333;28;20044;-74
2022/01/13 01:44:49;;;;;;;412.42;37.22;;;4.60;99.90;;;;;;5055813;28;20036;-74
2022/01/13 01:47:17;;;;;;;484.77;41.97;;;4.60;99.90;;;;;;5038726;28;20488;-75
2022/01/13 01:49:46;;;;;;;402.08;36.50;;;4.60;99.90;;;;;;5056426;28;20051;-75
2022/01/13 01:52:14;;;;;;;498.93;39.00;;;4.70;99.90;;;;;;5056147;28;20048;-74
2022/01/13 01:54:40;;;;;;;385.95;36.35;;;4.70;99.90;;;;;;5055906;28;20057;-75
2022/01/13 01:57:06;;;;;;;415.13;36.03;;;4.70;99.90;;;;;;5055567;28;20037;-75
2022/01/13 01:59:36;;;;;;;423.80;37.78;;;4.70;99.90;;;;;;5055778;28;20047;-75
2022/01/13 02:02:02;;;;;;;520.85;40.65;;;4.70;99.90;;;;;;5047441;28;20064;-75
2022/01/13 02:04:28;;;;;;;424.00;36.65;;;4.70;99.90;;;;;;5019521;28;20364;-74
2022/01/13 02:06:56;;;;;;;474.70;38.45;;;4.70;99.90;;;;;;5036120;28;20100;-75
2022/01/13 02:09:23;;;;;;;433.13;37.28;;;4.70;99.90;;;;;;5018958;28;20098;-74
2022/01/13 02:11:54;;;;;;;383.08;34.67;;;4.80;99.90;;;;;;5034791;28;20368;-74
2022/01/13 02:16:53;;;;;;;333.02;32.33;;;4.80;99.90;;;;;;5035870;28;20191;-74
2022/01/13 02:19:19;;;;;;;380.98;33.65;;;4.80;99.90;;;;;;5036191;28;20044;-74
2022/01/13 02:21:45;;;;;;;378.27;35.97;;;4.80;99.90;;;;;;5036073;28;20360;-76
2022/01/13 02:24:14;;;;;;;317.90;31.92;;;4.80;99.90;;;;;;5042443;28;20051;-75
2022/01/13 02:26:40;;;;;;;422.75;35.28;;;4.80;99.90;;;;;;5041941;28;20040;-74
2022/01/13 02:29:05;;;;;;;389.38;34.58;;;4.80;99.90;;;;;;5041856;28;20116;-74
2022/01/13 02:31:31;;;;;;;357.27;32.65;;;4.80;99.90;;;;;;5042816;28;20041;-74
2022/01/13 02:33:56;;;;;;;390.58;33.65;;;4.80;99.90;;;;;;5042069;28;20071;-74
2022/01/13 02:36:23;;;;;;;361.38;32.65;;;4.80;99.90;;;;;;5025728;28;20043;-76
2022/01/13 02:38:50;;;;;;;440.67;36.10;;;4.80;99.90;;;;;;5025192;28;20045;-75
2022/01/13 02:41:16;;;;;;;424.98;32.92;;;4.80;99.90;;;;;;5042024;28;20055;-75
2022/01/13 02:43:47;;;;;;;315.58;30.98;;;4.80;99.90;;;;;;5041792;28;20063;-74
2022/01/13 02:49:10;;;;;;;321.15;31.63;;;4.80;99.90;;;;;;5041935;28;20060;-74
2022/01/13 02:51:37;;;;;;;379.70;32.28;;;4.80;99.90;;;;;;5041920;28;20478;-75
2022/01/13 02:54:04;;;;;;;345.63;31.23;;;4.80;99.90;;;;;;5041702;28;20051;-75
2022/01/13 02:56:31;;;;;;;402.98;33.72;;;4.80;99.90;;;;;;5038208;28;20048;-75
2022/01/13 02:58:57;;;;;;;341.00;30.27;;;4.80;99.90;;;;;;5022649;28;20037;-75
2022/01/13 03:01:24;;;;;;;316.95;31.30;;;4.80;99.90;;;;;;5023775;28;20435;-76
2022/01/13 03:03:49;;;;;;;300.42;30.00;;;4.80;99.90;;;;;;5041860;28;20132;-75
2022/01/13 03:06:21;;;;;;;342.10;31.48;;;4.80;99.90;;;;;;5041978;28;20446;-75
2022/01/13 03:08:48;;;;;;;322.45;30.27;;;4.80;99.90;;;;;;5041494;28;20041;-75
2022/01/13 03:11:15;;;;;;;394.30;33.08;;;4.80;99.90;;;;;;5025338;28;20391;-76
2022/01/13 03:13:42;;;;;;;431.50;33.95;;;4.90;99.90;;;;;;5042003;28;20075;-75
2022/01/13 03:16:09;;;;;;;292.75;30.45;;;4.80;99.90;;;;;;5042098;28;20084;-75
2022/01/13 03:18:36;;;;;;;374.20;33.40;;;4.80;99.90;;;;;;5041762;28;20041;-75
2022/01/13 03:21:02;;;;;;;326.67;32.15;;;4.80;99.90;;;;;;5024646;28;20049;-75
2022/01/13 03:23:27;;;;;;;283.55;29.45;;;4.80;99.90;;;;;;5041678;28;20049;-75
2022/01/13 03:25:53;;;;;;;248.85;28.15;;;4.80;99.90;;;;;;5025446;28;20055;-75
2022/01/13 03:28:29;;;;;;;355.50;32.65;;;4.80;99.90;;;;;;5041665;28;20041;-75
2022/01/13 03:30:56;;;;;;;370.38;32.58;;;4.80;99.90;;;;;;5025094;28;20514;-75
2022/01/13 03:33:22;;;;;;;302.35;30.30;;;4.80;99.90;;;;;;5040435;28;20086;-74
2022/01/13 03:35:48;;;;;;;279.40;29.90;;;4.80;99.90;;;;;;5023962;28;20032;-75
2022/01/13 03:38:14;;;;;;;300.63;30.02;;;4.80;99.90;;;;;;5041360;28;20071;-76
2022/01/13 03:40:40;;;;;;;327.10;31.30;;;4.80;99.90;;;;;;5042235;28;20044;-75
2022/01/13 03:43:06;;;;;;;294.90;29.05;;;4.80;99.90;;;;;;5058369;28;20041;-75
2022/01/13 03:45:32;;;;;;;261.95;28.27;;;4.80;99.90;;;;;;5041442;28;20463;-75
2022/01/13 03:48:01;;;;;;;276.00;28.58;;;4.70;99.90;;;;;;5041707;28;20036;-75
2022/01/13 03:50:27;;;;;;;264.55;28.30;;;4.80;99.90;;;;;;5041167;28;20223;-75
2022/01/13 03:53:01;;;;;;;303.90;29.98;;;4.70;99.90;;;;;;5042057;28;20127;-76
2022/01/13 03:55:36;;;;;;;238.10;26.42;;;4.80;99.90;;;;;;5058002;28;20483;-75
2022/01/13 03:58:39;;;;;;;254.02;27.23;;;4.70;99.90;;;;;;5040456;28;20429;-75
2022/01/13 04:02:10;;;;;;;277.42;28.48;;;4.70;99.90;;;;;;5054212;28;20497;-76
2022/01/13 04:04:41;;;;;;;212.20;26.63;;;4.70;99.90;;;;;;4991024;28;20451;-77
2022/01/13 04:07:25;;;;;;;207.88;26.60;;;4.70;99.90;;;;;;5040859;28;20479;-74
2022/01/13 04:10:23;;;;;;;218.35;26.55;;;4.70;99.90;;;;;;5038000;28;20126;-76
2022/01/13 04:12:49;;;;;;;198.50;25.60;;;4.70;99.90;;;;;;5057509;28;20044;-75
2022/01/13 04:15:17;;;;;;;186.18;26.02;;;4.70;99.90;;;;;;5057666;28;20048;-75
2022/01/13 04:17:43;;;;;;;249.45;28.20;;;4.70;99.90;;;;;;5057447;28;20066;-75
2022/01/13 04:20:09;;;;;;;220.95;26.58;;;4.60;99.90;;;;;;5040712;28;20048;-75
2022/01/13 04:22:35;;;;;;;280.60;28.67;;;4.70;99.90;;;;;;5040847;28;20033;-75
2022/01/13 04:25:01;;;;;;;177.05;24.85;;;4.70;99.90;;;;;;5057986;28;20044;-74
2022/01/13 04:27:36;;;;;;;275.38;28.60;;;4.70;99.90;;;;;;5057552;28;20394;-75
2022/01/13 04:32:39;;;;;;;193.63;25.45;;;4.60;99.90;;;;;;5043954;28;20390;-75
2022/01/13 04:35:06;;;;;;;194.52;25.98;;;4.70;99.90;;;;;;5057508;28;20471;-74
2022/01/13 04:37:32;;;;;;;179.65;24.30;;;4.60;99.90;;;;;;5057192;28;20044;-76
2022/01/13 04:39:57;;;;;;;186.68;25.35;;;4.60;99.90;;;;;;5040573;28;20044;-76
2022/01/13 04:42:23;;;;;;;164.57;23.75;;;4.60;99.90;;;;;;5057104;28;20036;-75
2022/01/13 04:44:49;;;;;;;162.23;23.85;;;4.60;99.90;;;;;;5056574;28;20036;-75
2022/01/13 04:47:14;;;;;;;212.05;25.73;;;4.60;99.90;;;;;;5057141;28;20055;-75
2022/01/13 04:49:40;;;;;;;194.48;25.48;;;4.60;99.90;;;;;;5056916;28;20055;-75
2022/01/13 04:52:06;;;;;;;240.23;27.42;;;4.60;99.90;;;;;;5057382;28;20078;-75
2022/01/13 04:54:31;;;;;;;211.38;25.98;;;4.60;99.90;;;;;;5057009;28;20131;-76
2022/01/13 04:57:14;;;;;;;200.75;27.25;;;4.60;99.90;;;;;;5056723;28;20095;-75
2022/01/13 04:59:41;;;;;;;226.57;27.35;;;4.60;99.90;;;;;;5039916;28;20044;-75
2022/01/13 05:02:06;;;;;;;211.70;27.48;;;4.60;99.90;;;;;;5056989;28;20633;-76
2022/01/13 05:04:33;;;;;;;201.32;27.30;;;4.60;99.90;;;;;;5056472;28;20475;-75
2022/01/13 05:06:59;;;;;;;180.75;25.98;;;4.60;99.90;;;;;;5056390;28;20036;-74
2022/01/13 05:09:24;;;;;;;213.10;26.63;;;4.50;99.90;;;;;;5040042;28;20174;-75
2022/01/13 05:11:50;;;;;;;193.60;25.58;;;4.60;99.90;;;;;;5055980;28;20494;-75
2022/01/13 05:14:15;;;;;;;179.93;25.98;;;4.50;99.90;;;;;;5040293;28;20478;-75
2022/01/13 05:17:00;;;;;;;190.15;26.23;;;4.50;99.90;;;;;;5040388;28;20028;-76
2022/01/13 05:19:37;;;;;;;173.40;25.33;;;4.50;99.90;;;;;;5052811;28;20047;-75
2022/01/13 05:22:15;;;;;;;147.85;23.38;;;4.50;99.90;;;;;;5036131;28;20510;-75
2022/01/13 05:24:45;;;;;;;184.13;25.00;;;4.50;99.90;;;;;;5037180;28;20056;-74
2022/01/13 05:27:11;;;;;;;174.07;25.80;;;4.50;99.90;;;;;;5041491;28;20048;-75
2022/01/13 05:29:37;;;;;;;147.82;23.33;;;4.50;99.90;;;;;;5036794;28;20042;-76
2022/01/13 05:32:03;;;;;;;152.02;23.23;;;4.50;99.90;;;;;;5036537;28;20372;-75
2022/01/13 05:34:28;;;;;;;192.07;26.25;;;4.40;99.90;;;;;;5046785;28;20045;-76
2022/01/13 05:36:54;;;;;;;165.70;24.75;;;4.40;99.90;;;;;;5055723;28;20036;-75
2022/01/13 05:39:19;;;;;;;150.38;23.70;;;4.40;99.90;;;;;;5039832;28;20036;-75
2022/01/13 05:41:45;;;;;;;162.50;23.38;;;4.40;99.90;;;;;;5056244;28;20520;-74
2022/01/13 05:44:11;;;;;;;163.77;25.02;;;4.50;99.90;;;;;;5056190;28;20048;-75
2022/01/13 05:46:36;;;;;;;211.57;28.30;;;4.40;99.90;;;;;;5038652;28;20048;-75
2022/01/13 05:49:02;;;;;;;149.40;24.02;;;4.40;99.90;;;;;;5038603;28;20367;-75
2022/01/13 05:51:27;;;;;;;158.27;24.85;;;4.40;99.90;;;;;;5055651;28;20387;-75
2022/01/13 05:53:53;;;;;;;154.75;23.58;;;4.30;99.90;;;;;;5056109;28;20075;-75
2022/01/13 05:56:19;;;;;;;200.50;26.33;;;4.40;99.90;;;;;;5056278;28;20485;-75
2022/01/13 05:58:44;;;;;;;177.80;25.80;;;4.40;99.90;;;;;;5055217;28;20364;-75
2022/01/13 06:01:10;;;;;;;203.23;28.13;;;4.40;99.90;;;;;;5055788;28;20034;-75
2022/01/13 06:03:36;;;;;;;234.27;28.52;;;4.40;99.90;;;;;;5055871;28;20082;-74
2022/01/13 06:06:01;;;;;;;247.40;29.60;;;4.40;99.90;;;;;;5055117;28;20040;-76
2022/01/13 06:08:27;;;;;;;209.27;28.67;;;4.40;99.90;;;;;;5052013;28;20390;-75
2022/01/13 06:10:53;;;;;;;213.63;28.63;;;4.40;99.90;;;;;;5036331;28;20041;-74
2022/01/13 06:13:18;;;;;;;225.40;28.13;;;4.40;99.90;;;;;;5035958;28;20053;-74
2022/01/13 06:15:44;;;;;;;251.73;29.33;;;4.40;99.90;;;;;;5036043;28;20064;-75
2022/01/13 06:18:12;;;;;;;193.77;27.60;;;4.40;99.90;;;;;;5035444;28;20072;-75
2022/01/13 06:20:39;;;;;;;189.40;25.48;;;4.40;99.90;;;;;;5035130;28;20037;-75
2022/01/13 06:23:07;;;;;;;227.98;27.88;;;4.40;99.90;;;;;;5035557;28;20080;-74
2022/01/13 06:25:33;;;;;;;187.18;25.73;;;4.40;99.90;;;;;;5036171;28;20053;-75
2022/01/13 06:27:59;;;;;;;190.07;25.80;;;4.40;99.90;;;;;;5035738;28;20052;-75
2022/01/13 06:30:24;;;;;;;244.52;27.77;;;4.40;99.90;;;;;;5019157;28;20414;-76
2022/01/13 06:32:50;;;;;;;248.80;29.35;;;4.40;99.90;;;;;;5019026;28;20049;-75
2022/01/13 06:35:16;;;;;;;200.48;25.98;;;4.40;99.90;;;;;;5019593;28;20383;-74
2022/01/13 06:37:42;;;;;;;231.57;27.30;;;4.40;99.90;;;;;;5039388;28;20157;-74
2022/01/13 06:40:09;;;;;;;188.18;26.27;;;4.40;99.90;;;;;;5055509;28;20051;-74
2022/01/13 06:42:35;;;;;;;187.73;24.92;;;4.40;99.90;;;;;;5055277;28;20074;-74
2022/01/13 06:45:00;;;;;;;182.02;24.83;;;4.40;99.90;;;;;;5055654;28;20048;-74
2022/01/13 06:47:26;;;;;;;198.43;27.42;;;4.30;99.90;;;;;;5055441;28;20044;-75
2022/01/13 06:49:52;;;;;;;200.05;27.67;;;4.30;99.90;;;;;;5054888;28;20181;-74
2022/01/13 06:52:17;;;;;;;196.23;25.75;;;4.30;99.90;;;;;;5039140;28;20405;-74
2022/01/13 06:54:44;;;;;;;216.05;27.75;;;4.40;99.90;;;;;;5055859;28;20048;-75
2022/01/13 06:57:09;;;;;;;228.90;27.38;;;4.40;99.90;;;;;;5055247;28;20074;-75
2022/01/13 06:59:35;;;;;;;221.30;26.92;;;4.40;99.90;;;;;;5055383;28;20137;-74
2022/01/13 07:02:01;;;;;;;194.77;27.90;;;4.30;99.90;;;;;;5055124;28;20044;-74
2022/01/13 07:04:28;;;;;;;218.40;26.52;;;4.40;99.90;;;;;;5054899;28;20044;-73
2022/01/13 07:06:55;;;;;;;209.50;27.42;;;4.40;99.90;;;;;;5051643;28;20124;-76
2022/01/13 07:09:21;;;;;;;216.85;27.20;;;4.30;99.90;;;;;;5021766;28;20041;-73
2022/01/13 07:11:47;;;;;;;235.80;28.08;;;4.40;99.90;;;;;;5041329;28;20056;-74
2022/01/13 07:14:13;;;;;;;199.05;26.63;;;4.40;99.90;;;;;;5058941;28;20036;-73
2022/01/13 07:16:41;;;;;;;196.60;27.45;;;4.30;99.90;;;;;;5058779;28;20041;-74
2022/01/13 07:19:09;;;;;;;274.05;29.75;;;4.40;99.90;;;;;;5058347;28;20040;-73
2022/01/13 07:21:35;;;;;;;217.05;28.40;;;4.40;99.90;;;;;;5042289;28;20127;-74
2022/01/13 07:24:01;;;;;;;215.48;29.60;;;4.40;99.90;;;;;;5059149;28;20174;-74
2022/01/13 07:26:26;;;;;;;264.65;31.63;;;4.40;99.90;;;;;;5058805;28;20182;-74
2022/01/13 07:28:52;;;;;;;218.60;28.73;;;4.40;99.90;;;;;;5058771;28;20054;-73
2022/01/13 07:31:19;;;;;;;237.02;28.75;;;4.40;99.90;;;;;;5041903;28;20051;-73
2022/01/13 07:33:45;;;;;;;242.00;28.95;;;4.40;99.90;;;;;;5041644;28;20048;-73
2022/01/13 07:36:11;;;;;;;233.45;27.63;;;4.40;99.90;;;;;;5057684;28;20045;-73
2022/01/13 07:38:36;;;;;;;246.82;29.95;;;4.40;99.90;;;;;;5057972;28;20119;-73
2022/01/13 07:41:03;;;;;;;256.85;28.02;;;4.40;99.90;;;;;;5058785;28;20037;-73
2022/01/13 07:43:28;;;;;;;221.35;27.70;;;4.40;99.90;;;;;;5058180;28;20047;-74
2022/01/13 07:45:54;;;;;;;217.50;27.50;;;4.40;99.90;;;;;;5041312;28;20028;-74
2022/01/13 07:48:21;;;;;;;213.90;28.10;;;4.40;99.90;;;;;;5041243;28;20036;-73
2022/01/13 07:50:47;;;;;;;198.95;26.65;;;4.40;99.90;;;;;;5058297;28;20114;-73
2022/01/13 07:53:14;;;;;;;214.60;28.17;;;4.40;99.90;;;;;;5042023;28;20054;-73
2022/01/13 07:55:39;;;;;;;201.55;27.73;;;4.40;99.90;;;;;;5041933;28;20044;-74
2022/01/13 07:58:05;;;;;;;224.23;27.33;;;4.40;99.90;;;;;;5057754;28;20036;-74
2022/01/13 08:00:31;;;;;;;217.25;27.05;;;4.40;99.90;;;;;;5058001;28;20047;-74
2022/01/13 08:02:57;;;;;;;199.13;28.02;;;4.50;99.90;;;;;;5041065;28;20058;-73
2022/01/13 08:05:22;;;;;;;236.02;29.42;;;4.50;99.90;;;;;;5040628;28;20084;-74
2022/01/13 08:07:48;;;;;;;219.57;28.98;;;4.40;99.90;;;;;;5058495;28;20093;-73
2022/01/13 08:10:14;;;;;;;216.57;28.02;;;4.50;99.90;;;;;;5057912;28;20048;-73
2022/01/13 08:12:40;;;;;;;182.52;28.40;;;4.50;99.90;;;;;;5057890;28;20075;-74
2022/01/13 08:15:13;;;;;;;206.48;27.67;;;4.50;99.90;;;;;;5057149;28;20071;-73
2022/01/13 08:20:32;;;;;;;222.13;27.63;;;4.50;99.90;;;;;;5056200;28;20465;-73
2022/01/13 08:22:59;;;;;;;175.82;26.95;;;4.60;99.90;;;;;;5057789;28;20193;-74
2022/01/13 08:25:27;;;;;;;200.98;28.02;;;4.60;99.90;;;;;;5057524;28;20059;-75
2022/01/13 08:27:53;;;;;;;187.20;27.40;;;4.60;99.90;;;;;;5057227;28;20481;-75
2022/01/13 08:30:19;;;;;;;174.90;27.17;;;4.60;99.90;;;;;;5057721;28;20048;-74
2022/01/13 08:32:45;;;;;;;151.35;25.95;;;4.60;99.90;;;;;;5057663;28;20044;-74
2022/01/13 08:35:11;;;;;;;160.07;25.98;;;4.60;99.90;;;;;;5057271;28;20044;-74
2022/01/13 08:37:37;;;;;;;229.50;28.38;;;4.50;99.90;;;;;;5053389;28;20036;-74
2022/01/13 08:40:05;;;;;;;177.10;27.02;;;4.60;99.90;;;;;;5037370;28;20047;-74
2022/01/13 08:42:33;;;;;;;158.55;25.92;;;4.60;99.90;;;;;;5037262;28;20132;-74
2022/01/13 08:44:59;;;;;;;191.15;26.25;;;4.60;99.90;;;;;;5021431;28;20426;-76
2022/01/13 08:47:25;;;;;;;172.60;27.17;;;4.60;99.90;;;;;;5036962;28;20471;-74
2022/01/13 08:49:50;;;;;;;182.63;26.63;;;4.60;99.90;;;;;;5037201;28;20040;-74
2022/01/13 08:52:16;;;;;;;175.63;26.88;;;4.60;99.90;;;;;;5020888;28;20049;-74
2022/01/13 08:54:45;;;;;;;168.93;26.50;;;4.60;99.90;;;;;;5020581;28;20386;-74
2022/01/13 08:57:11;;;;;;;153.23;24.52;;;4.60;99.90;;;;;;5036323;28;20095;-75
2022/01/13 08:59:37;;;;;;;158.13;24.88;;;4.60;99.90;;;;;;5037139;28;20045;-74
2022/01/13 09:02:02;;;;;;;177.43;25.55;;;4.60;99.90;;;;;;5053163;28;20094;-76
2022/01/13 09:04:28;;;;;;;174.23;26.00;;;4.60;99.90;;;;;;5044803;28;20036;-76
2022/01/13 09:06:54;;;;;;;169.13;25.83;;;4.60;99.90;;;;;;5030485;28;20375;-75
2022/01/13 09:09:19;;;;;;;185.50;27.35;;;4.60;99.90;;;;;;5045347;28;20072;-73
2022/01/13 09:11:45;;;;;;;167.43;26.40;;;4.60;99.90;;;;;;5037180;28;20046;-74
2022/01/13 09:14:11;;;;;;;177.45;25.92;;;4.60;99.90;;;;;;5055863;28;20035;-73
2022/01/13 09:16:44;;;;;;;168.20;26.17;;;4.70;99.90;;;;;;5056861;28;20102;-74
2022/01/13 09:19:12;;;;;;;169.82;26.80;;;4.70;99.90;;;;;;5039987;28;20387;-73
2022/01/13 09:21:42;;;;;;;150.70;25.33;;;4.70;99.90;;;;;;5056534;28;20052;-74
2022/01/13 09:24:13;;;;;;;188.50;27.13;;;4.70;99.90;;;;;;5055910;28;20378;-74
2022/01/13 09:26:41;;;;;;;194.43;26.45;;;4.70;99.90;;;;;;5039481;28;20406;-76
2022/01/13 09:29:08;;;;;;;219.23;29.13;;;4.70;99.90;;;;;;5025884;28;20043;-74
2022/01/13 09:31:35;;;;;;;174.82;26.67;;;4.70;99.90;;;;;;5032308;28;20127;-74
2022/01/13 09:34:02;;;;;;;227.07;28.80;;;4.70;99.90;;;;;;5045298;28;20039;-76
2022/01/13 09:36:31;;;;;;;158.07;26.08;;;4.70;99.90;;;;;;5044861;28;20474;-73
2022/01/13 09:39:03;;;;;;;192.23;28.80;;;4.80;99.90;;;;;;5044951;28;20045;-74
2022/01/13 09:41:30;;;;;;;180.70;27.17;;;4.80;99.90;;;;;;5044895;28;20399;-74
2022/01/13 09:43:58;;;;;;;185.32;28.08;;;4.80;99.90;;;;;;5046900;28;20048;-73
2022/01/13 09:46:27;;;;;;;209.18;29.40;;;4.80;99.90;;;;;;5045544;28;20533;-74
2022/01/13 09:48:54;;;;;;;205.25;27.73;;;4.80;99.90;;;;;;5049443;28;20082;-73
2022/01/13 09:51:25;;;;;;;188.68;27.95;;;4.80;99.90;;;;;;5055061;28;20383;-74
2022/01/13 09:53:51;;;;;;;226.60;30.02;;;4.90;99.90;;;;;;5039564;28;20044;-74
2022/01/13 09:56:16;;;;;;;179.75;27.67;;;4.90;99.90;;;;;;5055735;28;20032;-75
2022/01/13 09:58:44;;;;;;;193.50;27.65;;;4.90;99.90;;;;;;5028567;28;20048;-74
2022/01/13 10:01:14;;;;;;;174.90;28.30;;;4.90;99.90;;;;;;5045364;28;20055;-76
2022/01/13 10:03:41;;;;;;;200.82;29.45;;;4.90;99.90;;;;;;5044674;28;20115;-75
2022/01/13 10:06:15;;;;;;;182.00;27.88;;;4.90;99.90;;;;;;5045028;28;20052;-73
2022/01/13 10:08:49;;;;;;;176.80;28.00;;;4.90;99.90;;;;;;5038320;28;20052;-74
2022/01/13 10:11:28;;;;;;;212.13;28.58;;;4.90;99.90;;;;;;5036181;28;20128;-76
2022/01/13 10:14:13;;;;;;;206.05;29.35;;;5.00;99.90;;;;;;5035693;28;20492;-74
2022/01/13 10:16:51;;;;;;;189.80;29.27;;;5.00;99.90;;;;;;5019911;28;20152;-73
2022/01/13 10:19:36;;;;;;;192.38;28.98;;;5.00;99.90;;;;;;5035460;28;20132;-73
2022/01/13 10:22:09;;;;;;;228.23;30.77;;;5.00;99.90;;;;;;5035695;28;20037;-76
2022/01/13 10:24:43;;;;;;;222.32;31.00;;;5.00;99.90;;;;;;5044489;28;20041;-74
2022/01/13 10:27:19;;;;;;;228.82;31.48;;;5.00;99.90;;;;;;5050242;28;20103;-73
2022/01/13 10:29:49;;;;;;;206.75;29.20;;;5.10;99.90;;;;;;5035724;28;20097;-73
2022/01/13 10:32:24;;;;;;;202.70;29.98;;;5.10;99.90;;;;;;5019094;28;20441;-74
2022/01/13 10:34:59;;;;;;;209.95;28.42;;;5.10;99.90;;;;;;5035363;28;20468;-74
2022/01/13 10:37:35;;;;;;;225.75;31.02;;;5.10;99.90;;;;;;5035416;28;20065;-74
2022/01/13 10:40:23;;;;;;;185.52;28.27;;;5.10;99.90;;;;;;5035652;28;20037;-74
2022/01/13 10:43:15;;;;;;;174.25;27.50;;;5.10;99.90;;;;;;5035552;28;20049;-73
2022/01/13 10:45:48;;;;;;;230.68;29.92;;;5.10;99.90;;;;;;5034712;28;20494;-74
2022/01/13 10:48:23;;;;;;;189.73;29.05;;;5.10;99.90;;;;;;5039482;28;20056;-74
2022/01/13 10:50:58;;;;;;;172.80;28.98;;;5.10;99.90;;;;;;5022839;28;20071;-75
2022/01/13 10:53:28;;;;;;;205.93;31.08;;;5.10;99.90;;;;;;5047803;28;20517;-74
2022/01/13 10:55:58;;;;;;;185.95;30.35;;;5.10;99.90;;;;;;5057083;28;20072;-75
2022/01/13 10:58:33;;;;;;;178.88;28.02;;;5.20;99.90;;;;;;5092484;28;20090;-72
2022/01/13 11:01:00;;;;;;;162.35;27.70;;;5.20;99.90;;;;;;5042854;28;20387;-75
2022/01/13 11:03:29;;;;;;;145.43;27.73;;;5.20;99.90;;;;;;5054450;28;20045;-75
2022/01/13 11:06:01;;;;;;;174.73;27.35;;;5.20;99.90;;;;;;5039294;28;20048;-74
2022/01/13 11:08:43;;;;;;;164.88;27.90;;;5.20;99.90;;;;;;5038776;28;20052;-76
2022/01/13 11:11:20;;;;;;;137.95;25.80;;;5.30;99.90;;;;;;5022675;28;20094;-74
2022/01/13 11:14:07;;;;;;;157.20;27.38;;;5.20;99.90;;;;;;5038961;28;20057;-74
2022/01/13 11:16:34;;;;;;;136.38;25.75;;;5.30;99.90;;;;;;5047625;28;20052;-74
2022/01/13 11:19:00;;;;;;;138.95;25.92;;;5.30;99.90;;;;;;5050723;28;20064;-74
2022/01/13 11:21:28;;;;;;;148.38;27.00;;;5.30;99.90;;;;;;5058779;28;20497;-74
2022/01/13 11:23:56;;;;;;;143.75;26.02;;;5.30;99.90;;;;;;5042663;28;20041;-74
2022/01/13 11:26:27;;;;;;;132.02;25.42;;;5.30;99.90;;;;;;5058761;28;20048;-74
2022/01/13 11:28:54;;;;;;;143.75;26.42;;;5.30;99.90;;;;;;5058628;28;20040;-75
2022/01/13 11:31:20;;;;;;;125.63;26.08;;;5.30;99.90;;;;;;5058323;28;20095;-73
2022/01/13 11:33:45;;;;;;;160.27;28.25;;;5.30;99.90;;;;;;5058491;28;20071;-74
2022/01/13 11:36:12;;;;;;;110.03;22.75;;;5.30;99.90;;;;;;5040794;28;20083;-73
2022/01/13 11:38:51;;;;;;;119.78;26.60;;;5.30;99.90;;;;;;5056726;28;20044;-74
2022/01/13 11:41:17;;;;;;;136.40;26.85;;;5.20;99.90;;;;;;5054080;28;20063;-73
2022/01/13 11:43:43;;;;;;;136.60;25.30;;;5.20;99.90;;;;;;5042058;28;20398;-73
2022/01/13 11:46:16;;;;;;;134.05;26.10;;;5.30;99.90;;;;;;5058826;28;20049;-74
2022/01/13 11:49:05;;;;;;;123.80;25.40;;;5.30;99.90;;;;;;5058283;28;20052;-75
2022/01/13 11:54:39;;;;;;;139.48;26.70;;;5.30;99.90;;;;;;4972479;28;20057;-73
2022/01/13 11:57:09;;;;;;;134.75;25.77;;;5.30;99.90;;;;;;5041401;28;20510;-74
2022/01/13 11:59:35;;;;;;;129.55;24.88;;;5.30;99.90;;;;;;5053965;28;20049;-74
2022/01/13 12:02:26;;;;;;;133.07;26.33;;;5.20;99.90;;;;;;5053259;28;20441;-73
2022/01/13 12:05:07;;;;;;;139.60;25.70;;;5.20;99.90;;;;;;5053925;28;20040;-75
2022/01/13 12:07:47;;;;;;;137.23;26.05;;;5.20;99.90;;;;;;5039812;28;20490;-75
2022/01/13 12:10:37;;;;;;;132.50;26.02;;;5.20;99.90;;;;;;5056145;28;20119;-74
2022/01/13 12:13:28;;;;;;;124.10;27.08;;;5.20;99.90;;;;;;5057282;28;20040;-73
2022/01/13 12:15:55;;;;;;;141.88;25.80;;;5.20;99.90;;;;;;5037737;28;20052;-73
2022/01/13 12:18:43;;;;;;;137.07;26.40;;;5.20;99.90;;;;;;5050523;28;20106;-74
2022/01/13 12:21:29;;;;;;;134.80;26.60;;;5.20;99.90;;;;;;5037460;28;20036;-74
2022/01/13 12:23:56;;;;;;;142.63;26.50;;;5.20;99.90;;;;;;5058203;28;20037;-74
2022/01/13 12:26:33;;;;;;;121.15;26.83;;;5.20;99.90;;;;;;5057449;28;20505;-74
2022/01/13 12:29:09;;;;;;;119.50;24.90;;;5.30;99.90;;;;;;5057440;28;20044;-74
2022/01/13 12:31:35;;;;;;;109.43;23.92;;;5.20;99.90;;;;;;5057184;28;20040;-74
2022/01/13 12:34:01;;;;;;;114.55;24.90;;;5.20;99.90;;;;;;5057836;28;20048;-73
2022/01/13 12:36:26;;;;;;;97.88;23.52;;;5.20;99.90;;;;;;5053876;28;20390;-75
2022/01/13 12:38:59;;;;;;;103.93;24.48;;;5.20;99.90;;;;;;5037560;28;20040;-75
2022/01/13 12:41:27;;;;;;;85.65;22.20;;;5.20;99.90;;;;;;5037498;28;20049;-73
2022/01/13 12:44:12;;;;;;;109.05;24.77;;;5.20;99.90;;;;;;5020913;28;20048;-74
2022/01/13 12:46:39;;;;;;;120.75;25.58;;;5.20;99.90;;;;;;5020810;28;20044;-73
2022/01/13 12:49:07;;;;;;;114.03;25.38;;;5.30;99.90;;;;;;5021164;28;20052;-74
2022/01/13 12:51:33;;;;;;;106.85;24.63;;;5.30;99.90;;;;;;5037494;28;20044;-74
2022/01/13 12:53:59;;;;;;;108.10;25.30;;;5.20;99.90;;;;;;5037369;28;20045;-74
2022/01/13 12:56:27;;;;;;;119.78;25.15;;;5.20;99.90;;;;;;5020565;28;20037;-74
2022/01/13 12:58:56;;;;;;;100.85;23.45;;;5.20;99.90;;;;;;5020187;28;20478;-74
2022/01/13 13:01:28;;;;;;;114.43;26.33;;;5.30;99.90;;;;;;5020643;28;20132;-74